sensor_id;sensor_type;location;lat;lon;timestamp;P1;durP1;ratioP1;P2;durP2;ratioP2
20122;SDS011;10222;50.848;4.336;2024-03-29T00:00:45;3.30;;;0.60;;
20122;SDS011;10222;50.848;4.336;2024-03-29T00:03:12;3.37;;;1.00;;
20122;SDS011;10222;50.848;4.336;2024-03-29T00:05:38;2.63;;;0.70;;
20122;SDS011;10222;50.848;4.336;2024-03-29T00:08:04;4.47;;;1.00;;
20122;SDS011;10222;50.848;4.336;2024-03-29T00:10:30;2.43;;;0.80;;
20122;SDS011;10222;50.848;4.336;2024-03-29T00:12:57;2.57;;;0.60;;
20122;SDS011;10222;50.848;4.336;2024-03-29T00:15:23;1.00;;;0.70;;
20122;SDS011;10222;50.848;4.336;2024-03-29T00:17:49;2.77;;;0.53;;
20122;SDS011;10222;50.848;4.336;2024-03-29T00:20:16;3.23;;;0.60;;
20122;SDS011;10222;50.848;4.336;2024-03-29T00:22:42;2.00;;;0.77;;
20122;SDS011;10222;50.848;4.336;2024-03-29T00:25:08;3.33;;;1.07;;
20122;SDS011;10222;50.848;4.336;2024-03-29T00:27:36;4.90;;;0.90;;
20122;SDS011;10222;50.848;4.336;2024-03-29T00:30:02;4.40;;;1.10;;
20122;SDS011;10222;50.848;4.336;2024-03-29T00:32:29;4.47;;;1.33;;
20122;SDS011;10222;50.848;4.336;2024-03-29T00:34:55;4.87;;;1.30;;
20122;SDS011;10222;50.848;4.336;2024-03-29T00:37:23;3.43;;;1.07;;
20122;SDS011;10222;50.848;4.336;2024-03-29T00:39:49;5.23;;;0.97;;
20122;SDS011;10222;50.848;4.336;2024-03-29T00:42:15;2.90;;;0.90;;
20122;SDS011;10222;50.848;4.336;2024-03-29T00:44:42;7.63;;;1.00;;
20122;SDS011;10222;50.848;4.336;2024-03-29T00:47:08;1.63;;;0.70;;
20122;SDS011;10222;50.848;4.336;2024-03-29T00:49:34;1.93;;;0.83;;
20122;SDS011;10222;50.848;4.336;2024-03-29T00:52:00;3.47;;;0.90;;
20122;SDS011;10222;50.848;4.336;2024-03-29T00:54:27;2.87;;;0.83;;
20122;SDS011;10222;50.848;4.336;2024-03-29T00:56:53;4.30;;;1.03;;
20122;SDS011;10222;50.848;4.336;2024-03-29T00:59:19;3.07;;;0.60;;
20122;SDS011;10222;50.848;4.336;2024-03-29T01:01:48;2.03;;;0.57;;
20122;SDS011;10222;50.848;4.336;2024-03-29T01:04:14;5.43;;;0.83;;
20122;SDS011;10222;50.848;4.336;2024-03-29T01:06:41;5.70;;;0.60;;
20122;SDS011;10222;50.848;4.336;2024-03-29T01:09:08;0.70;;;0.43;;
20122;SDS011;10222;50.848;4.336;2024-03-29T01:11:36;3.33;;;0.70;;
20122;SDS011;10222;50.848;4.336;2024-03-29T01:14:02;5.10;;;0.80;;
20122;SDS011;10222;50.848;4.336;2024-03-29T01:16:28;3.73;;;0.97;;
20122;SDS011;10222;50.848;4.336;2024-03-29T01:18:55;3.63;;;0.80;;
20122;SDS011;10222;50.848;4.336;2024-03-29T01:21:21;2.93;;;0.60;;
20122;SDS011;10222;50.848;4.336;2024-03-29T01:23:47;2.83;;;0.70;;
20122;SDS011;10222;50.848;4.336;2024-03-29T01:26:13;1.50;;;0.43;;
20122;SDS011;10222;50.848;4.336;2024-03-29T01:28:39;3.00;;;0.73;;
20122;SDS011;10222;50.848;4.336;2024-03-29T01:31:05;1.20;;;0.50;;
20122;SDS011;10222;50.848;4.336;2024-03-29T01:33:31;2.77;;;1.07;;
20122;SDS011;10222;50.848;4.336;2024-03-29T01:36:01;2.87;;;0.70;;
20122;SDS011;10222;50.848;4.336;2024-03-29T01:38:27;8.23;;;1.00;;
20122;SDS011;10222;50.848;4.336;2024-03-29T01:40:53;1.77;;;0.57;;
20122;SDS011;10222;50.848;4.336;2024-03-29T01:43:19;1.70;;;0.50;;
20122;SDS011;10222;50.848;4.336;2024-03-29T01:45:47;4.23;;;0.80;;
20122;SDS011;10222;50.848;4.336;2024-03-29T01:48:14;1.80;;;0.50;;
20122;SDS011;10222;50.848;4.336;2024-03-29T01:50:40;5.90;;;0.67;;
20122;SDS011;10222;50.848;4.336;2024-03-29T01:53:07;1.37;;;0.43;;
20122;SDS011;10222;50.848;4.336;2024-03-29T01:55:34;2.57;;;0.40;;
20122;SDS011;10222;50.848;4.336;2024-03-29T01:58:00;1.07;;;0.40;;
20122;SDS011;10222;50.848;4.336;2024-03-29T02:00:27;1.93;;;0.33;;
20122;SDS011;10222;50.848;4.336;2024-03-29T02:02:53;3.10;;;0.40;;
20122;SDS011;10222;50.848;4.336;2024-03-29T02:05:19;1.57;;;0.50;;
20122;SDS011;10222;50.848;4.336;2024-03-29T02:07:46;1.97;;;0.50;;
20122;SDS011;10222;50.848;4.336;2024-03-29T02:10:13;0.63;;;0.20;;
20122;SDS011;10222;50.848;4.336;2024-03-29T02:12:46;1.70;;;0.30;;
20122;SDS011;10222;50.848;4.336;2024-03-29T02:15:15;0.77;;;0.23;;
20122;SDS011;10222;50.848;4.336;2024-03-29T02:17:41;0.63;;;0.20;;
20122;SDS011;10222;50.848;4.336;2024-03-29T02:20:08;0.50;;;0.10;;
20122;SDS011;10222;50.848;4.336;2024-03-29T02:22:35;0.67;;;0.30;;
20122;SDS011;10222;50.848;4.336;2024-03-29T02:25:02;1.37;;;0.37;;
20122;SDS011;10222;50.848;4.336;2024-03-29T02:27:28;1.67;;;0.40;;
20122;SDS011;10222;50.848;4.336;2024-03-29T02:29:54;1.60;;;0.40;;
20122;SDS011;10222;50.848;4.336;2024-03-29T02:32:20;1.30;;;0.50;;
20122;SDS011;10222;50.848;4.336;2024-03-29T02:34:46;1.03;;;0.50;;
20122;SDS011;10222;50.848;4.336;2024-03-29T02:37:12;0.33;;;0.23;;
20122;SDS011;10222;50.848;4.336;2024-03-29T02:39:38;0.93;;;0.47;;
20122;SDS011;10222;50.848;4.336;2024-03-29T02:42:04;2.47;;;0.47;;
20122;SDS011;10222;50.848;4.336;2024-03-29T02:44:30;1.07;;;0.53;;
20122;SDS011;10222;50.848;4.336;2024-03-29T02:46:56;2.70;;;0.60;;
20122;SDS011;10222;50.848;4.336;2024-03-29T02:49:22;1.40;;;0.70;;
20122;SDS011;10222;50.848;4.336;2024-03-29T02:51:48;1.83;;;0.70;;
20122;SDS011;10222;50.848;4.336;2024-03-29T02:54:17;5.03;;;1.40;;
20122;SDS011;10222;50.848;4.336;2024-03-29T02:56:44;4.73;;;1.40;;
20122;SDS011;10222;50.848;4.336;2024-03-29T02:59:10;1.57;;;0.70;;
20122;SDS011;10222;50.848;4.336;2024-03-29T03:01:36;3.40;;;0.97;;
20122;SDS011;10222;50.848;4.336;2024-03-29T03:04:02;3.00;;;0.90;;
20122;SDS011;10222;50.848;4.336;2024-03-29T03:06:31;3.20;;;0.77;;
20122;SDS011;10222;50.848;4.336;2024-03-29T03:08:58;2.47;;;0.80;;
20122;SDS011;10222;50.848;4.336;2024-03-29T03:11:43;4.13;;;0.70;;
20122;SDS011;10222;50.848;4.336;2024-03-29T03:14:09;3.60;;;0.60;;
20122;SDS011;10222;50.848;4.336;2024-03-29T03:16:35;2.67;;;0.50;;
20122;SDS011;10222;50.848;4.336;2024-03-29T03:19:01;5.87;;;0.70;;
20122;SDS011;10222;50.848;4.336;2024-03-29T03:21:27;1.77;;;0.87;;
20122;SDS011;10222;50.848;4.336;2024-03-29T03:23:53;4.50;;;0.50;;
20122;SDS011;10222;50.848;4.336;2024-03-29T03:26:19;2.90;;;0.80;;
20122;SDS011;10222;50.848;4.336;2024-03-29T03:28:45;2.93;;;0.53;;
20122;SDS011;10222;50.848;4.336;2024-03-29T03:31:11;2.97;;;0.70;;
20122;SDS011;10222;50.848;4.336;2024-03-29T03:33:37;3.80;;;0.77;;
20122;SDS011;10222;50.848;4.336;2024-03-29T03:36:09;2.00;;;0.70;;
20122;SDS011;10222;50.848;4.336;2024-03-29T03:38:35;0.80;;;0.80;;
20122;SDS011;10222;50.848;4.336;2024-03-29T03:41:03;1.97;;;0.77;;
20122;SDS011;10222;50.848;4.336;2024-03-29T03:43:29;1.23;;;0.40;;
20122;SDS011;10222;50.848;4.336;2024-03-29T03:45:59;1.30;;;0.57;;
20122;SDS011;10222;50.848;4.336;2024-03-29T03:48:26;1.23;;;0.60;;
20122;SDS011;10222;50.848;4.336;2024-03-29T03:50:53;1.93;;;0.83;;
20122;SDS011;10222;50.848;4.336;2024-03-29T03:53:19;4.03;;;0.67;;
20122;SDS011;10222;50.848;4.336;2024-03-29T03:55:45;1.37;;;0.50;;
20122;SDS011;10222;50.848;4.336;2024-03-29T03:58:11;3.20;;;0.60;;
20122;SDS011;10222;50.848;4.336;2024-03-29T04:00:37;2.63;;;0.73;;
20122;SDS011;10222;50.848;4.336;2024-03-29T04:03:03;1.43;;;0.50;;
20122;SDS011;10222;50.848;4.336;2024-03-29T04:05:29;3.50;;;0.77;;
20122;SDS011;10222;50.848;4.336;2024-03-29T04:07:56;1.20;;;0.43;;
20122;SDS011;10222;50.848;4.336;2024-03-29T04:10:22;1.13;;;0.87;;
20122;SDS011;10222;50.848;4.336;2024-03-29T04:12:50;1.70;;;0.60;;
20122;SDS011;10222;50.848;4.336;2024-03-29T04:15:16;2.13;;;0.63;;
20122;SDS011;10222;50.848;4.336;2024-03-29T04:17:43;1.37;;;0.50;;
20122;SDS011;10222;50.848;4.336;2024-03-29T04:20:09;1.97;;;0.60;;
20122;SDS011;10222;50.848;4.336;2024-03-29T04:22:35;2.30;;;0.50;;
20122;SDS011;10222;50.848;4.336;2024-03-29T04:25:01;1.67;;;0.50;;
20122;SDS011;10222;50.848;4.336;2024-03-29T04:27:28;0.80;;;0.40;;
20122;SDS011;10222;50.848;4.336;2024-03-29T04:29:54;0.77;;;0.20;;
20122;SDS011;10222;50.848;4.336;2024-03-29T04:32:21;1.33;;;0.60;;
20122;SDS011;10222;50.848;4.336;2024-03-29T04:34:50;1.10;;;0.50;;
20122;SDS011;10222;50.848;4.336;2024-03-29T04:37:17;1.13;;;0.30;;
20122;SDS011;10222;50.848;4.336;2024-03-29T04:39:44;1.63;;;0.40;;
20122;SDS011;10222;50.848;4.336;2024-03-29T04:42:10;0.70;;;0.40;;
20122;SDS011;10222;50.848;4.336;2024-03-29T04:44:37;0.97;;;0.60;;
20122;SDS011;10222;50.848;4.336;2024-03-29T04:47:03;2.63;;;0.83;;
20122;SDS011;10222;50.848;4.336;2024-03-29T04:49:30;1.63;;;0.50;;
20122;SDS011;10222;50.848;4.336;2024-03-29T04:51:59;1.43;;;0.50;;
20122;SDS011;10222;50.848;4.336;2024-03-29T04:54:26;1.57;;;0.50;;
20122;SDS011;10222;50.848;4.336;2024-03-29T04:56:52;0.77;;;0.40;;
20122;SDS011;10222;50.848;4.336;2024-03-29T04:59:18;1.53;;;0.30;;
20122;SDS011;10222;50.848;4.336;2024-03-29T05:01:46;1.77;;;0.37;;
20122;SDS011;10222;50.848;4.336;2024-03-29T05:04:15;1.00;;;0.53;;
20122;SDS011;10222;50.848;4.336;2024-03-29T05:06:43;2.60;;;0.40;;
20122;SDS011;10222;50.848;4.336;2024-03-29T05:09:10;3.03;;;0.57;;
20122;SDS011;10222;50.848;4.336;2024-03-29T05:11:37;1.33;;;0.50;;
20122;SDS011;10222;50.848;4.336;2024-03-29T05:14:04;2.67;;;0.50;;
20122;SDS011;10222;50.848;4.336;2024-03-29T05:16:31;0.60;;;0.37;;
20122;SDS011;10222;50.848;4.336;2024-03-29T05:18:57;1.77;;;0.43;;
20122;SDS011;10222;50.848;4.336;2024-03-29T05:21:23;0.60;;;0.37;;
20122;SDS011;10222;50.848;4.336;2024-03-29T05:23:49;2.10;;;0.50;;
20122;SDS011;10222;50.848;4.336;2024-03-29T05:26:15;2.60;;;0.40;;
20122;SDS011;10222;50.848;4.336;2024-03-29T05:28:41;1.70;;;0.60;;
20122;SDS011;10222;50.848;4.336;2024-03-29T05:31:13;3.87;;;0.60;;
20122;SDS011;10222;50.848;4.336;2024-03-29T05:33:43;0.67;;;0.50;;
20122;SDS011;10222;50.848;4.336;2024-03-29T05:36:10;0.40;;;0.30;;
20122;SDS011;10222;50.848;4.336;2024-03-29T05:38:39;3.17;;;1.13;;
20122;SDS011;10222;50.848;4.336;2024-03-29T05:41:05;1.93;;;0.53;;
20122;SDS011;10222;50.848;4.336;2024-03-29T05:43:31;1.57;;;0.50;;
20122;SDS011;10222;50.848;4.336;2024-03-29T05:45:57;1.23;;;0.60;;
20122;SDS011;10222;50.848;4.336;2024-03-29T05:48:25;1.87;;;0.67;;
20122;SDS011;10222;50.848;4.336;2024-03-29T05:50:51;0.73;;;0.50;;
20122;SDS011;10222;50.848;4.336;2024-03-29T05:53:17;2.00;;;0.50;;
20122;SDS011;10222;50.848;4.336;2024-03-29T05:55:43;3.50;;;0.50;;
20122;SDS011;10222;50.848;4.336;2024-03-29T05:58:09;1.50;;;0.60;;
20122;SDS011;10222;50.848;4.336;2024-03-29T06:00:35;1.27;;;0.53;;
20122;SDS011;10222;50.848;4.336;2024-03-29T06:03:01;3.20;;;0.77;;
20122;SDS011;10222;50.848;4.336;2024-03-29T06:05:28;1.47;;;0.60;;
20122;SDS011;10222;50.848;4.336;2024-03-29T06:07:55;3.00;;;0.60;;
20122;SDS011;10222;50.848;4.336;2024-03-29T06:10:23;1.27;;;0.60;;
20122;SDS011;10222;50.848;4.336;2024-03-29T06:12:49;1.33;;;0.60;;
20122;SDS011;10222;50.848;4.336;2024-03-29T06:15:15;1.57;;;0.60;;
20122;SDS011;10222;50.848;4.336;2024-03-29T06:18:00;1.63;;;0.50;;
20122;SDS011;10222;50.848;4.336;2024-03-29T06:20:26;1.13;;;0.60;;
20122;SDS011;10222;50.848;4.336;2024-03-29T06:22:52;3.47;;;0.83;;
20122;SDS011;10222;50.848;4.336;2024-03-29T06:25:18;1.93;;;0.60;;
20122;SDS011;10222;50.848;4.336;2024-03-29T06:27:44;1.37;;;0.67;;
20122;SDS011;10222;50.848;4.336;2024-03-29T06:30:13;2.63;;;0.80;;
20122;SDS011;10222;50.848;4.336;2024-03-29T06:32:44;1.40;;;0.80;;
20122;SDS011;10222;50.848;4.336;2024-03-29T06:35:10;5.93;;;1.00;;
20122;SDS011;10222;50.848;4.336;2024-03-29T06:37:36;1.57;;;0.60;;
20122;SDS011;10222;50.848;4.336;2024-03-29T06:40:03;3.27;;;1.20;;
20122;SDS011;10222;50.848;4.336;2024-03-29T06:42:29;2.30;;;0.93;;
20122;SDS011;10222;50.848;4.336;2024-03-29T06:44:56;3.97;;;0.90;;
20122;SDS011;10222;50.848;4.336;2024-03-29T06:47:23;4.40;;;1.00;;
20122;SDS011;10222;50.848;4.336;2024-03-29T06:49:49;3.07;;;1.03;;
20122;SDS011;10222;50.848;4.336;2024-03-29T06:52:15;1.57;;;1.00;;
20122;SDS011;10222;50.848;4.336;2024-03-29T06:54:42;3.17;;;0.97;;
20122;SDS011;10222;50.848;4.336;2024-03-29T06:57:08;3.53;;;1.37;;
20122;SDS011;10222;50.848;4.336;2024-03-29T06:59:35;2.73;;;1.20;;
20122;SDS011;10222;50.848;4.336;2024-03-29T07:02:01;2.70;;;1.00;;
20122;SDS011;10222;50.848;4.336;2024-03-29T07:04:27;4.10;;;1.10;;
20122;SDS011;10222;50.848;4.336;2024-03-29T07:06:53;5.47;;;1.10;;
20122;SDS011;10222;50.848;4.336;2024-03-29T07:09:20;3.93;;;0.93;;
20122;SDS011;10222;50.848;4.336;2024-03-29T07:11:47;4.20;;;0.90;;
20122;SDS011;10222;50.848;4.336;2024-03-29T07:14:14;2.60;;;1.00;;
20122;SDS011;10222;50.848;4.336;2024-03-29T07:16:40;1.10;;;0.80;;
20122;SDS011;10222;50.848;4.336;2024-03-29T07:19:06;2.63;;;0.93;;
20122;SDS011;10222;50.848;4.336;2024-03-29T07:21:32;4.70;;;1.20;;
20122;SDS011;10222;50.848;4.336;2024-03-29T07:23:58;5.20;;;1.27;;
20122;SDS011;10222;50.848;4.336;2024-03-29T07:26:24;4.27;;;1.10;;
20122;SDS011;10222;50.848;4.336;2024-03-29T07:28:50;4.07;;;1.20;;
20122;SDS011;10222;50.848;4.336;2024-03-29T07:31:16;3.17;;;1.40;;
20122;SDS011;10222;50.848;4.336;2024-03-29T07:33:42;2.30;;;1.40;;
20122;SDS011;10222;50.848;4.336;2024-03-29T07:36:08;2.63;;;1.10;;
20122;SDS011;10222;50.848;4.336;2024-03-29T07:38:36;3.80;;;1.10;;
20122;SDS011;10222;50.848;4.336;2024-03-29T07:41:03;2.80;;;1.27;;
20122;SDS011;10222;50.848;4.336;2024-03-29T07:43:41;4.03;;;1.30;;
20122;SDS011;10222;50.848;4.336;2024-03-29T07:46:17;2.87;;;1.27;;
20122;SDS011;10222;50.848;4.336;2024-03-29T07:48:43;2.20;;;1.23;;
20122;SDS011;10222;50.848;4.336;2024-03-29T07:51:10;2.83;;;1.00;;
20122;SDS011;10222;50.848;4.336;2024-03-29T07:53:36;6.83;;;1.30;;
20122;SDS011;10222;50.848;4.336;2024-03-29T07:56:02;6.53;;;1.40;;
20122;SDS011;10222;50.848;4.336;2024-03-29T07:58:28;6.77;;;1.60;;
20122;SDS011;10222;50.848;4.336;2024-03-29T08:00:54;4.60;;;1.37;;
20122;SDS011;10222;50.848;4.336;2024-03-29T08:03:20;3.87;;;1.30;;
20122;SDS011;10222;50.848;4.336;2024-03-29T08:06:02;4.20;;;1.50;;
20122;SDS011;10222;50.848;4.336;2024-03-29T08:08:31;3.43;;;1.40;;
20122;SDS011;10222;50.848;4.336;2024-03-29T08:10:58;5.57;;;1.67;;
20122;SDS011;10222;50.848;4.336;2024-03-29T08:13:27;3.77;;;1.47;;
20122;SDS011;10222;50.848;4.336;2024-03-29T08:15:57;4.87;;;1.20;;
20122;SDS011;10222;50.848;4.336;2024-03-29T08:18:23;6.30;;;1.87;;
20122;SDS011;10222;50.848;4.336;2024-03-29T08:20:50;3.90;;;1.40;;
20122;SDS011;10222;50.848;4.336;2024-03-29T08:23:16;2.73;;;1.10;;
20122;SDS011;10222;50.848;4.336;2024-03-29T08:25:42;2.47;;;1.27;;
20122;SDS011;10222;50.848;4.336;2024-03-29T08:28:08;2.80;;;1.23;;
20122;SDS011;10222;50.848;4.336;2024-03-29T08:30:34;3.87;;;1.47;;
20122;SDS011;10222;50.848;4.336;2024-03-29T08:33:03;7.77;;;1.77;;
20122;SDS011;10222;50.848;4.336;2024-03-29T08:35:29;2.93;;;1.50;;
20122;SDS011;10222;50.848;4.336;2024-03-29T08:37:55;4.23;;;1.87;;
20122;SDS011;10222;50.848;4.336;2024-03-29T08:40:22;7.37;;;1.90;;
20122;SDS011;10222;50.848;4.336;2024-03-29T08:42:49;4.33;;;2.10;;
20122;SDS011;10222;50.848;4.336;2024-03-29T08:45:15;4.40;;;1.50;;
20122;SDS011;10222;50.848;4.336;2024-03-29T08:47:41;4.87;;;1.40;;
20122;SDS011;10222;50.848;4.336;2024-03-29T08:50:07;2.80;;;1.40;;
20122;SDS011;10222;50.848;4.336;2024-03-29T08:52:34;3.07;;;1.23;;
20122;SDS011;10222;50.848;4.336;2024-03-29T08:55:00;6.07;;;1.83;;
20122;SDS011;10222;50.848;4.336;2024-03-29T08:57:26;4.17;;;1.80;;
20122;SDS011;10222;50.848;4.336;2024-03-29T08:59:52;5.67;;;1.47;;
20122;SDS011;10222;50.848;4.336;2024-03-29T09:02:17;1.93;;;1.40;;
20122;SDS011;10222;50.848;4.336;2024-03-29T09:04:44;2.30;;;1.40;;
20122;SDS011;10222;50.848;4.336;2024-03-29T09:07:10;4.10;;;1.43;;
20122;SDS011;10222;50.848;4.336;2024-03-29T09:09:36;2.17;;;1.20;;
20122;SDS011;10222;50.848;4.336;2024-03-29T09:12:05;3.07;;;1.70;;
20122;SDS011;10222;50.848;4.336;2024-03-29T09:14:31;3.33;;;1.50;;
20122;SDS011;10222;50.848;4.336;2024-03-29T09:16:57;7.40;;;2.23;;
20122;SDS011;10222;50.848;4.336;2024-03-29T09:19:23;3.00;;;1.57;;
20122;SDS011;10222;50.848;4.336;2024-03-29T09:21:50;6.17;;;1.80;;
20122;SDS011;10222;50.848;4.336;2024-03-29T09:24:16;4.93;;;2.17;;
20122;SDS011;10222;50.848;4.336;2024-03-29T09:26:43;5.03;;;1.60;;
20122;SDS011;10222;50.848;4.336;2024-03-29T09:29:09;2.50;;;1.17;;
20122;SDS011;10222;50.848;4.336;2024-03-29T09:31:38;2.43;;;1.27;;
20122;SDS011;10222;50.848;4.336;2024-03-29T09:34:05;2.13;;;1.10;;
20122;SDS011;10222;50.848;4.336;2024-03-29T09:36:31;2.10;;;1.23;;
20122;SDS011;10222;50.848;4.336;2024-03-29T09:38:57;3.47;;;1.20;;
20122;SDS011;10222;50.848;4.336;2024-03-29T09:41:23;1.90;;;1.17;;
20122;SDS011;10222;50.848;4.336;2024-03-29T09:43:50;2.60;;;1.40;;
20122;SDS011;10222;50.848;4.336;2024-03-29T09:46:19;5.60;;;2.00;;
20122;SDS011;10222;50.848;4.336;2024-03-29T09:48:47;2.80;;;1.30;;
20122;SDS011;10222;50.848;4.336;2024-03-29T09:51:13;5.50;;;1.27;;
20122;SDS011;10222;50.848;4.336;2024-03-29T09:53:40;2.53;;;1.33;;
20122;SDS011;10222;50.848;4.336;2024-03-29T09:56:07;2.10;;;1.23;;
20122;SDS011;10222;50.848;4.336;2024-03-29T09:58:35;2.03;;;1.20;;
20122;SDS011;10222;50.848;4.336;2024-03-29T10:01:05;2.17;;;1.00;;
20122;SDS011;10222;50.848;4.336;2024-03-29T10:03:32;2.00;;;1.20;;
20122;SDS011;10222;50.848;4.336;2024-03-29T10:05:59;2.60;;;1.27;;
20122;SDS011;10222;50.848;4.336;2024-03-29T10:08:26;3.27;;;1.40;;
20122;SDS011;10222;50.848;4.336;2024-03-29T10:10:59;1.73;;;0.87;;
20122;SDS011;10222;50.848;4.336;2024-03-29T10:13:25;2.60;;;1.10;;
20122;SDS011;10222;50.848;4.336;2024-03-29T10:15:52;3.30;;;1.17;;
20122;SDS011;10222;50.848;4.336;2024-03-29T10:18:20;2.53;;;1.10;;
20122;SDS011;10222;50.848;4.336;2024-03-29T10:20:46;2.40;;;1.20;;
20122;SDS011;10222;50.848;4.336;2024-03-29T10:23:13;1.87;;;1.30;;
20122;SDS011;10222;50.848;4.336;2024-03-29T10:25:42;2.40;;;1.30;;
20122;SDS011;10222;50.848;4.336;2024-03-29T10:28:08;1.97;;;0.97;;
20122;SDS011;10222;50.848;4.336;2024-03-29T10:30:34;1.13;;;0.77;;
20122;SDS011;10222;50.848;4.336;2024-03-29T10:33:01;3.40;;;1.30;;
20122;SDS011;10222;50.848;4.336;2024-03-29T10:35:27;3.90;;;1.00;;
20122;SDS011;10222;50.848;4.336;2024-03-29T10:37:53;1.80;;;0.80;;
20122;SDS011;10222;50.848;4.336;2024-03-29T10:40:20;1.47;;;0.90;;
20122;SDS011;10222;50.848;4.336;2024-03-29T10:42:49;3.20;;;0.80;;
20122;SDS011;10222;50.848;4.336;2024-03-29T10:45:17;0.83;;;0.53;;
20122;SDS011;10222;50.848;4.336;2024-03-29T10:47:44;1.53;;;0.80;;
20122;SDS011;10222;50.848;4.336;2024-03-29T10:50:14;3.23;;;0.77;;
20122;SDS011;10222;50.848;4.336;2024-03-29T10:52:40;2.70;;;0.57;;
20122;SDS011;10222;50.848;4.336;2024-03-29T10:55:07;1.00;;;0.90;;
20122;SDS011;10222;50.848;4.336;2024-03-29T10:57:34;1.70;;;0.60;;
20122;SDS011;10222;50.848;4.336;2024-03-29T11:02:49;0.77;;;0.50;;
20122;SDS011;10222;50.848;4.336;2024-03-29T11:05:19;2.23;;;0.70;;
20122;SDS011;10222;50.848;4.336;2024-03-29T11:07:46;2.60;;;1.00;;
20122;SDS011;10222;50.848;4.336;2024-03-29T11:10:15;3.60;;;0.60;;
20122;SDS011;10222;50.848;4.336;2024-03-29T11:12:45;1.43;;;0.50;;
20122;SDS011;10222;50.848;4.336;2024-03-29T11:15:16;1.63;;;0.53;;
20122;SDS011;10222;50.848;4.336;2024-03-29T11:17:45;0.87;;;0.37;;
20122;SDS011;10222;50.848;4.336;2024-03-29T11:20:11;2.53;;;1.10;;
20122;SDS011;10222;50.848;4.336;2024-03-29T11:22:41;1.43;;;0.50;;
20122;SDS011;10222;50.848;4.336;2024-03-29T11:25:10;2.53;;;0.73;;
20122;SDS011;10222;50.848;4.336;2024-03-29T11:27:38;1.37;;;0.30;;
20122;SDS011;10222;50.848;4.336;2024-03-29T11:30:04;0.40;;;0.40;;
20122;SDS011;10222;50.848;4.336;2024-03-29T11:32:37;2.43;;;0.50;;
20122;SDS011;10222;50.848;4.336;2024-03-29T11:35:04;1.00;;;0.50;;
20122;SDS011;10222;50.848;4.336;2024-03-29T11:37:31;2.87;;;0.50;;
20122;SDS011;10222;50.848;4.336;2024-03-29T11:40:00;0.67;;;0.40;;
20122;SDS011;10222;50.848;4.336;2024-03-29T11:42:46;4.10;;;0.50;;
20122;SDS011;10222;50.848;4.336;2024-03-29T11:45:13;1.50;;;0.67;;
20122;SDS011;10222;50.848;4.336;2024-03-29T11:47:39;0.83;;;0.40;;
20122;SDS011;10222;50.848;4.336;2024-03-29T11:50:07;3.30;;;0.90;;
20122;SDS011;10222;50.848;4.336;2024-03-29T11:52:33;1.90;;;0.40;;
20122;SDS011;10222;50.848;4.336;2024-03-29T11:54:59;1.60;;;0.60;;
20122;SDS011;10222;50.848;4.336;2024-03-29T11:57:25;3.43;;;0.60;;
20122;SDS011;10222;50.848;4.336;2024-03-29T11:59:51;1.27;;;0.40;;
20122;SDS011;10222;50.848;4.336;2024-03-29T12:02:17;2.93;;;0.50;;
20122;SDS011;10222;50.848;4.336;2024-03-29T12:04:43;2.70;;;0.70;;
20122;SDS011;10222;50.848;4.336;2024-03-29T12:07:10;0.93;;;0.50;;
20122;SDS011;10222;50.848;4.336;2024-03-29T12:09:36;3.90;;;0.83;;
20122;SDS011;10222;50.848;4.336;2024-03-29T12:12:06;1.07;;;0.50;;
20122;SDS011;10222;50.848;4.336;2024-03-29T12:14:35;3.60;;;0.50;;
20122;SDS011;10222;50.848;4.336;2024-03-29T12:17:08;4.90;;;0.73;;
20122;SDS011;10222;50.848;4.336;2024-03-29T12:19:35;3.23;;;0.90;;
20122;SDS011;10222;50.848;4.336;2024-03-29T12:22:03;4.03;;;0.70;;
20122;SDS011;10222;50.848;4.336;2024-03-29T12:24:30;2.20;;;0.60;;
20122;SDS011;10222;50.848;4.336;2024-03-29T12:26:57;2.07;;;0.63;;
20122;SDS011;10222;50.848;4.336;2024-03-29T12:29:23;0.70;;;0.60;;
20122;SDS011;10222;50.848;4.336;2024-03-29T12:31:58;1.27;;;0.60;;
20122;SDS011;10222;50.848;4.336;2024-03-29T12:34:25;2.80;;;0.83;;
20122;SDS011;10222;50.848;4.336;2024-03-29T12:36:51;1.20;;;0.60;;
20122;SDS011;10222;50.848;4.336;2024-03-29T12:39:17;1.50;;;0.70;;
20122;SDS011;10222;50.848;4.336;2024-03-29T12:41:46;4.07;;;0.50;;
20122;SDS011;10222;50.848;4.336;2024-03-29T12:44:13;6.27;;;0.80;;
20122;SDS011;10222;50.848;4.336;2024-03-29T12:46:39;5.33;;;1.03;;
20122;SDS011;10222;50.848;4.336;2024-03-29T12:49:05;2.70;;;0.60;;
20122;SDS011;10222;50.848;4.336;2024-03-29T12:51:31;1.10;;;0.43;;
20122;SDS011;10222;50.848;4.336;2024-03-29T12:54:03;3.53;;;0.50;;
20122;SDS011;10222;50.848;4.336;2024-03-29T12:56:31;8.63;;;0.67;;
20122;SDS011;10222;50.848;4.336;2024-03-29T12:58:57;1.20;;;0.50;;
20122;SDS011;10222;50.848;4.336;2024-03-29T13:01:23;2.00;;;0.40;;
20122;SDS011;10222;50.848;4.336;2024-03-29T13:03:50;0.80;;;0.47;;
20122;SDS011;10222;50.848;4.336;2024-03-29T13:06:16;1.43;;;0.40;;
20122;SDS011;10222;50.848;4.336;2024-03-29T13:08:43;1.00;;;0.50;;
20122;SDS011;10222;50.848;4.336;2024-03-29T13:11:09;2.20;;;0.60;;
20122;SDS011;10222;50.848;4.336;2024-03-29T13:13:36;1.90;;;0.60;;
20122;SDS011;10222;50.848;4.336;2024-03-29T13:16:02;1.30;;;0.57;;
20122;SDS011;10222;50.848;4.336;2024-03-29T13:18:29;1.07;;;0.60;;
20122;SDS011;10222;50.848;4.336;2024-03-29T13:20:55;2.70;;;0.83;;
20122;SDS011;10222;50.848;4.336;2024-03-29T13:23:24;3.93;;;0.70;;
20122;SDS011;10222;50.848;4.336;2024-03-29T13:25:50;9.63;;;1.43;;
20122;SDS011;10222;50.848;4.336;2024-03-29T13:28:18;3.13;;;0.60;;
20122;SDS011;10222;50.848;4.336;2024-03-29T13:30:44;1.00;;;0.40;;
20122;SDS011;10222;50.848;4.336;2024-03-29T13:33:13;2.70;;;0.60;;
20122;SDS011;10222;50.848;4.336;2024-03-29T13:35:39;1.60;;;0.60;;
20122;SDS011;10222;50.848;4.336;2024-03-29T13:38:05;6.90;;;0.87;;
20122;SDS011;10222;50.848;4.336;2024-03-29T13:40:31;0.30;;;0.30;;
20122;SDS011;10222;50.848;4.336;2024-03-29T13:42:59;2.00;;;0.60;;
20122;SDS011;10222;50.848;4.336;2024-03-29T13:45:25;2.30;;;0.50;;
20122;SDS011;10222;50.848;4.336;2024-03-29T13:47:52;2.40;;;0.80;;
20122;SDS011;10222;50.848;4.336;2024-03-29T13:50:18;2.77;;;0.50;;
20122;SDS011;10222;50.848;4.336;2024-03-29T13:52:45;4.23;;;0.50;;
20122;SDS011;10222;50.848;4.336;2024-03-29T13:55:11;0.73;;;0.40;;
20122;SDS011;10222;50.848;4.336;2024-03-29T13:57:37;1.90;;;0.73;;
20122;SDS011;10222;50.848;4.336;2024-03-29T14:00:03;2.93;;;0.37;;
20122;SDS011;10222;50.848;4.336;2024-03-29T14:02:31;1.03;;;0.47;;
20122;SDS011;10222;50.848;4.336;2024-03-29T14:04:57;1.33;;;0.43;;
20122;SDS011;10222;50.848;4.336;2024-03-29T14:07:24;2.47;;;0.50;;
20122;SDS011;10222;50.848;4.336;2024-03-29T14:09:50;1.23;;;0.50;;
20122;SDS011;10222;50.848;4.336;2024-03-29T14:12:16;1.27;;;0.40;;
20122;SDS011;10222;50.848;4.336;2024-03-29T14:14:43;1.73;;;0.40;;
20122;SDS011;10222;50.848;4.336;2024-03-29T14:17:15;1.50;;;0.43;;
20122;SDS011;10222;50.848;4.336;2024-03-29T14:19:41;1.17;;;0.33;;
20122;SDS011;10222;50.848;4.336;2024-03-29T14:22:07;1.80;;;0.50;;
20122;SDS011;10222;50.848;4.336;2024-03-29T14:24:33;0.70;;;0.40;;
20122;SDS011;10222;50.848;4.336;2024-03-29T14:27:04;1.77;;;0.53;;
20122;SDS011;10222;50.848;4.336;2024-03-29T14:29:34;0.90;;;0.40;;
20122;SDS011;10222;50.848;4.336;2024-03-29T14:32:00;3.90;;;0.70;;
20122;SDS011;10222;50.848;4.336;2024-03-29T14:34:28;3.57;;;0.50;;
20122;SDS011;10222;50.848;4.336;2024-03-29T14:36:59;4.30;;;0.50;;
20122;SDS011;10222;50.848;4.336;2024-03-29T14:39:25;4.47;;;0.50;;
20122;SDS011;10222;50.848;4.336;2024-03-29T14:41:53;0.43;;;0.40;;
20122;SDS011;10222;50.848;4.336;2024-03-29T14:44:19;1.27;;;0.50;;
20122;SDS011;10222;50.848;4.336;2024-03-29T14:46:46;1.83;;;0.70;;
20122;SDS011;10222;50.848;4.336;2024-03-29T14:49:12;1.13;;;0.50;;